Time;durP1;ratioP1;P1;durP2;ratioP2;P2;SDS_P1;SDS_P2;PMS_P1;PMS_P2;Temp;Humidity;BMP_temperature;BMP_pressure;BME280_temperature;BME280_humidity;BME280_pressure;Samples;Min_cycle;Max_cycle;Signal;HPM_P1;HPM_P2
2021/07/13 00:02:09;;;;;;;8.95;7.63;;;;;;;25.87;43.87;99331.31;5052397;28;20029;-74
2021/07/13 00:04:35;;;;;;;8.05;7.20;;;;;;;26.12;43.94;99393.34;5053653;28;20021;-73
2021/07/13 00:07:01;;;;;;;10.07;7.93;;;;;;;26.04;44.16;99385.03;5053689;28;20103;-74
2021/07/13 00:09:27;;;;;;;9.50;7.57;;;;;;;25.59;44.29;99324.75;5054027;28;20108;-76
2021/07/13 00:11:52;;;;;;;10.23;7.85;;;;;;;25.92;44.47;99390.78;5053663;28;20467;-75
2021/07/13 00:14:18;;;;;;;9.65;7.38;;;;;;;25.81;44.83;99375.72;5052246;28;20033;-75
2021/07/13 00:16:43;;;;;;;8.10;7.28;;;;;;;25.82;44.81;99378.13;5052269;28;20021;-74
2021/07/13 00:19:08;;;;;;;9.38;8.32;;;;;;;25.79;44.76;99394.13;5053406;28;20036;-72
2021/07/13 00:21:34;;;;;;;8.77;7.63;;;;;;;25.72;44.72;99382.81;5053401;28;20111;-73
2021/07/13 00:23:59;;;;;;;13.30;7.68;;;;;;;25.66;45.13;99379.34;5051971;28;20029;-75
2021/07/13 00:26:26;;;;;;;10.48;7.47;;;;;;;25.49;44.92;99349.13;5053297;28;20406;-74
2021/07/13 00:28:52;;;;;;;9.40;7.78;;;;;;;25.73;45.00;99387.94;5053347;28;20481;-74
2021/07/13 00:31:18;;;;;;;9.23;7.20;;;;;;;25.69;45.08;99384.19;5053070;28;20029;-74
2021/07/13 00:33:43;;;;;;;10.13;8.00;;;;;;;25.52;44.97;99360.19;5053036;28;20078;-75
2021/07/13 00:36:08;;;;;;;9.43;7.82;;;;;;;25.63;44.95;99380.66;5053179;28;20025;-75
2021/07/13 00:38:34;;;;;;;9.73;8.30;;;;;;;25.39;45.26;99344.59;5053155;28;20482;-75
2021/07/13 00:41:00;;;;;;;9.63;7.93;;;;;;;25.63;45.36;99379.88;5052305;28;20053;-74
2021/07/13 00:43:25;;;;;;;8.88;7.97;;;;;;;25.66;45.44;99379.34;5052078;28;20032;-74
2021/07/13 00:45:51;;;;;;;10.43;7.80;;;;;;;25.63;45.38;99369.03;5051732;28;20029;-74
2021/07/13 00:48:19;;;;;;;10.50;7.70;;;;;;;25.18;45.12;99311.47;5052729;28;20036;-75
2021/07/13 00:50:44;;;;;;;8.20;7.10;;;;;;;25.59;45.56;99386.91;5052643;28;20545;-74
2021/07/13 00:53:10;;;;;;;8.10;6.90;;;;;;;25.55;45.62;99380.47;5052779;28;20052;-74
2021/07/13 00:55:36;;;;;;;7.68;6.95;;;;;;;25.21;45.76;99346.03;5052442;28;20037;-75
2021/07/13 00:58:04;;;;;;;10.70;7.65;;;;;;;25.21;45.69;99339.81;5051132;28;20051;-74
2021/07/13 01:00:31;;;;;;;11.05;7.70;;;;;;;25.37;45.60;99378.41;5052411;28;20029;-74
2021/07/13 01:03:01;;;;;;;9.10;7.65;;;;;;;25.34;45.80;99385.19;5051217;28;20032;-74
2021/07/13 01:05:33;;;;;;;9.18;8.27;;;;;;;24.98;46.03;99354.78;5051254;28;20516;-74
2021/07/13 01:08:28;;;;;;;9.05;8.07;;;;;;;25.13;46.43;99387.16;5052368;28;20060;-75
2021/07/13 01:11:07;;;;;;;11.70;8.20;;;;;;;25.12;46.72;99390.94;5052585;28;20043;-74
2021/07/13 01:13:39;;;;;;;9.32;7.78;;;;;;;24.73;46.48;99328.69;5052375;28;20079;-75
2021/07/13 01:16:20;;;;;;;10.10;8.35;;;;;;;25.00;46.64;99358.03;5051060;28;20482;-74
2021/07/13 01:18:58;;;;;;;10.38;7.95;;;;;;;25.09;46.71;99369.88;5052576;28;20024;-74
2021/07/13 01:21:56;;;;;;;8.82;7.70;;;;;;;25.06;46.70;99378.53;5052236;28;20486;-74
2021/07/13 01:24:44;;;;;;;10.00;8.98;;;;;;;25.07;46.61;99380.16;5050401;28;20033;-74
2021/07/13 01:27:34;;;;;;;12.13;8.68;;;;;;;25.00;46.64;99383.16;5052330;28;20060;-74
2021/07/13 01:30:06;;;;;;;12.52;7.85;;;;;;;24.93;46.98;99390.72;5052091;28;20075;-75
2021/07/13 01:32:34;;;;;;;14.25;8.63;;;;;;;24.66;46.96;99352.47;5051846;28;20557;-74
2021/07/13 01:35:05;;;;;;;10.07;8.07;;;;;;;24.88;47.46;99384.53;5052020;28;20052;-74
2021/07/13 01:37:32;;;;;;;10.10;9.07;;;;;;;24.88;47.14;99395.31;5051915;28;20036;-74
2021/07/13 01:40:00;;;;;;;11.80;8.68;;;;;;;24.82;47.63;99378.31;5051961;28;20037;-74
2021/07/13 01:42:27;;;;;;;9.27;7.97;;;;;;;24.83;47.40;99389.94;5050359;28;20433;-74
2021/07/13 01:44:53;;;;;;;13.05;9.35;;;;;;;24.81;47.48;99394.81;5051760;28;20032;-75
2021/07/13 01:47:21;;;;;;;13.55;9.20;;;;;;;24.50;47.27;99335.47;5051722;28;20021;-74
2021/07/13 01:49:47;;;;;;;10.25;9.15;;;;;;;24.77;47.33;99388.34;5051574;28;20029;-75
2021/07/13 01:52:15;;;;;;;12.30;8.80;;;;;;;24.74;47.67;99387.00;5051557;28;20025;-74
2021/07/13 01:54:43;;;;;;;9.80;8.73;;;;;;;24.70;47.52;99383.22;5051720;28;20021;-74
2021/07/13 01:57:10;;;;;;;9.88;8.55;;;;;;;24.68;47.62;99388.91;5050185;28;20021;-74
2021/07/13 01:59:39;;;;;;;11.55;8.90;;;;;;;24.57;47.71;99381.91;5050203;28;20521;-73
2021/07/13 02:02:08;;;;;;;9.77;8.73;;;;;;;24.23;47.97;99343.06;5051594;28;20182;-74
2021/07/13 02:04:36;;;;;;;11.48;9.68;;;;;;;24.51;48.12;99388.38;5051791;28;20087;-74
2021/07/13 02:07:06;;;;;;;12.88;8.63;;;;;;;24.44;48.20;99384.34;5051460;28;20027;-74
2021/07/13 02:09:33;;;;;;;9.70;8.70;;;;;;;24.41;48.13;99388.38;5051327;28;20096;-73
2021/07/13 02:11:59;;;;;;;10.25;8.40;;;;;;;24.43;48.11;99393.50;5051241;28;20032;-75
2021/07/13 02:14:25;;;;;;;13.18;10.13;;;;;;;24.09;48.28;99340.91;5051195;28;20028;-74
2021/07/13 02:16:51;;;;;;;11.50;8.65;;;;;;;24.38;48.37;99394.34;5050114;28;20024;-74
2021/07/13 02:19:17;;;;;;;11.38;8.85;;;;;;;24.28;48.32;99365.47;5051346;28;20025;-74
2021/07/13 02:21:43;;;;;;;13.27;9.18;;;;;;;24.45;47.96;99392.16;5050144;28;20459;-74
2021/07/13 02:24:09;;;;;;;9.10;8.15;;;;;;;24.41;48.21;99391.09;5050003;28;20487;-74
2021/07/13 02:26:43;;;;;;;13.52;9.68;;;;;;;24.32;48.41;99395.41;5049887;28;20013;-74
2021/07/13 02:29:50;;;;;;;13.43;9.40;;;;;;;24.26;48.74;99401.88;5049840;28;20064;-74
2021/07/13 02:32:32;;;;;;;10.60;8.27;;;;;;;24.26;48.66;99388.38;5051206;28;20534;-74
2021/07/13 02:35:01;;;;;;;12.52;8.93;;;;;;;24.18;48.47;99378.13;5051177;28;20021;-74
2021/07/13 02:37:28;;;;;;;12.50;9.50;;;;;;;24.32;48.47;99395.41;5050772;28;20025;-74
2021/07/13 02:39:54;;;;;;;13.48;9.02;;;;;;;24.33;48.73;99421.31;5050899;28;20099;-74
2021/07/13 02:42:21;;;;;;;16.20;9.95;;;;;;;24.07;48.75;99388.94;5050999;28;20029;-74
2021/07/13 02:44:48;;;;;;;13.80;9.10;;;;;;;24.21;48.88;99413.47;5051096;28;20416;-74
2021/07/13 02:47:15;;;;;;;11.02;9.93;;;;;;;24.00;48.89;99384.88;5051094;28;20025;-74
2021/07/13 02:49:50;;;;;;;13.52;9.48;;;;;;;24.13;49.04;99405.94;5051049;28;20033;-74
2021/07/13 02:52:20;;;;;;;12.30;9.20;;;;;;;23.78;49.26;99377.03;5051301;28;20021;-74
2021/07/13 02:54:49;;;;;;;13.73;9.27;;;;;;;24.04;49.50;99413.75;5051020;28;20027;-74
2021/07/13 02:57:16;;;;;;;10.75;9.63;;;;;;;24.06;49.30;99422.38;5050784;28;20033;-74
2021/07/13 02:59:43;;;;;;;12.38;9.23;;;;;;;23.77;49.37;99370.00;5051091;28;20448;-74
2021/07/13 03:02:09;;;;;;;14.07;9.88;;;;;;;23.82;49.42;99369.25;5050794;28;20082;-74
2021/07/13 03:04:37;;;;;;;14.93;9.93;;;;;;;24.07;49.38;99404.31;5051856;28;20013;-74
2021/07/13 03:07:03;;;;;;;16.40;9.27;;;;;;;24.16;49.21;99410.78;5053583;28;20028;-74
2021/07/13 03:09:29;;;;;;;12.50;10.23;;;;;;;23.74;49.22;99340.91;5054730;28;20021;-74
2021/07/13 03:11:55;;;;;;;11.70;9.15;;;;;;;23.87;49.23;99374.63;5054940;28;20105;-74
2021/07/13 03:14:22;;;;;;;13.30;9.45;;;;;;;24.24;49.22;99412.13;5054671;28;20515;-74
2021/07/13 03:16:49;;;;;;;12.80;9.88;;;;;;;24.27;48.96;99422.41;5054614;28;20494;-75
2021/07/13 03:19:15;;;;;;;11.55;9.00;;;;;;;24.05;48.93;99395.69;5053363;28;20024;-74
2021/07/13 03:21:49;;;;;;;16.75;9.73;;;;;;;23.97;48.85;99372.75;5054569;28;20025;-74
2021/07/13 03:24:16;;;;;;;20.67;10.57;;;;;;;24.25;49.01;99422.66;5054701;28;20028;-74
2021/07/13 03:26:43;;;;;;;13.70;10.02;;;;;;;24.20;49.13;99413.75;5054304;28;20017;-74
2021/07/13 03:29:11;;;;;;;14.75;9.07;;;;;;;24.16;49.16;99420.75;5053185;28;20440;-74
2021/07/13 03:31:37;;;;;;;10.32;9.18;;;;;;;23.94;49.30;99367.91;5054557;28;20021;-74
2021/07/13 03:34:05;;;;;;;11.63;10.10;;;;;;;23.95;49.06;99360.63;5054500;28;20048;-75
2021/07/13 03:36:32;;;;;;;12.30;9.98;;;;;;;23.95;49.08;99358.72;5054236;28;20028;-74
2021/07/13 03:38:58;;;;;;;16.83;10.13;;;;;;;24.26;49.30;99418.06;5054382;28;20016;-74
2021/07/13 03:41:24;;;;;;;11.10;10.00;;;;;;;24.26;49.44;99412.66;5054111;28;20051;-74
2021/07/13 03:43:50;;;;;;;14.13;10.27;;;;;;;24.25;49.49;99417.25;5052782;28;20074;-75
2021/07/13 03:46:17;;;;;;;10.68;9.20;;;;;;;24.24;49.42;99418.31;5054125;28;20024;-74
2021/07/13 03:48:46;;;;;;;12.18;9.02;;;;;;;24.20;49.33;99401.06;5052745;28;20021;-74
2021/07/13 03:51:25;;;;;;;11.45;9.45;;;;;;;24.30;49.22;99414.59;5053952;28;20389;-74
2021/07/13 03:53:51;;;;;;;13.70;11.02;;;;;;;24.28;49.42;99394.34;5053712;28;20024;-74
2021/07/13 03:56:16;;;;;;;12.85;10.32;;;;;;;23.91;49.57;99343.34;5053650;28;20109;-74
2021/07/13 03:58:41;;;;;;;12.85;10.32;;;;;;;23.94;49.51;99342.81;5053814;28;20490;-74
2021/07/13 04:01:07;;;;;;;17.52;10.40;;;;;;;24.36;49.50;99400.00;5053956;28;20485;-74
2021/07/13 04:03:32;;;;;;;14.35;9.65;;;;;;;24.11;49.29;99350.63;5053654;28;20024;-74
2021/07/13 04:05:57;;;;;;;11.95;10.75;;;;;;;23.97;49.42;99320.69;5053689;28;20545;-74
2021/07/13 04:08:23;;;;;;;14.40;10.43;;;;;;;24.58;49.56;99409.72;5053671;28;20024;-74
2021/07/13 04:10:48;;;;;;;12.05;10.27;;;;;;;24.17;49.44;99336.84;5053580;28;20540;-74
2021/07/13 04:13:14;;;;;;;16.48;10.65;;;;;;;24.62;49.21;99405.38;5053444;28;20560;-75
2021/07/13 04:15:41;;;;;;;14.15;10.50;;;;;;;24.64;49.30;99408.63;5053356;28;20028;-74
2021/07/13 04:18:07;;;;;;;14.60;9.85;;;;;;;24.46;49.38;99377.59;5052272;28;20116;-74
2021/07/13 04:20:32;;;;;;;11.63;9.75;;;;;;;24.51;49.17;99357.88;5053543;28;20108;-74
2021/07/13 04:22:58;;;;;;;12.32;10.27;;;;;;;24.64;48.84;99368.94;5053420;28;20020;-74
2021/07/13 04:25:23;;;;;;;13.15;10.27;;;;;;;24.68;48.79;99369.19;5053371;28;20021;-74
2021/07/13 04:27:49;;;;;;;13.88;10.00;;;;;;;24.81;48.44;99387.50;5053363;28;20025;-73
2021/07/13 04:30:15;;;;;;;16.73;10.10;;;;;;;25.05;48.62;99416.63;5053367;28;20021;-74
2021/07/13 04:32:40;;;;;;;13.40;9.98;;;;;;;25.09;48.50;99415.81;5053312;28;20525;-76
2021/07/13 04:35:06;;;;;;;15.20;10.40;;;;;;;25.03;48.44;99406.09;5053312;28;20021;-73
2021/07/13 04:37:32;;;;;;;12.50;9.85;;;;;;;24.78;48.60;99376.44;5052854;28;20067;-74
2021/07/13 04:39:58;;;;;;;10.55;9.45;;;;;;;24.97;48.61;99412.56;5053045;28;20021;-74
2021/07/13 04:42:23;;;;;;;11.88;10.07;;;;;;;24.47;48.59;99343.31;5052792;28;20032;-75
2021/07/13 04:44:48;;;;;;;13.73;9.82;;;;;;;24.87;48.75;99396.41;5053180;28;20017;-74
2021/07/13 04:47:14;;;;;;;11.77;10.00;;;;;;;25.06;48.45;99413.66;5051662;28;20013;-73
2021/07/13 04:49:39;;;;;;;12.00;9.45;;;;;;;25.16;48.53;99420.91;5052964;28;20021;-75
2021/07/13 04:52:05;;;;;;;13.65;9.77;;;;;;;24.95;48.31;99377.72;5052861;28;20405;-75
2021/07/13 04:54:33;;;;;;;17.38;10.00;;;;;;;24.88;48.28;99352.09;5052601;28;20017;-75
2021/07/13 04:57:00;;;;;;;14.02;10.88;;;;;;;25.34;48.49;99404.91;5052497;28;20107;-74
2021/07/13 04:59:25;;;;;;;11.93;10.45;;;;;;;25.01;48.41;99363.16;5052552;28;20413;-75
2021/07/13 05:01:51;;;;;;;11.68;9.80;;;;;;;25.33;48.22;99407.88;5052444;28;20029;-74
2021/07/13 05:04:16;;;;;;;12.68;10.60;;;;;;;25.35;48.32;99403.00;5052453;28;20021;-73
2021/07/13 05:06:42;;;;;;;12.10;9.98;;;;;;;25.19;48.23;99369.81;5052260;28;20020;-74
2021/07/13 05:09:07;;;;;;;11.63;10.32;;;;;;;25.38;48.10;99380.84;5052250;28;20025;-73
2021/07/13 05:11:33;;;;;;;17.52;10.30;;;;;;;25.27;48.32;99366.56;5052268;28;20151;-73
2021/07/13 05:14:02;;;;;;;12.98;9.57;;;;;;;25.59;47.95;99416.66;5052124;28;20493;-74
2021/07/13 05:16:28;;;;;;;14.40;9.57;;;;;;;25.17;48.37;99350.38;5052217;28;20052;-72
2021/07/13 05:18:53;;;;;;;15.90;9.98;;;;;;;25.70;47.79;99417.44;5051045;28;20127;-73
2021/07/13 05:21:18;;;;;;;14.15;10.00;;;;;;;25.80;47.60;99417.38;5052191;28;20025;-74
2021/07/13 05:23:44;;;;;;;13.70;9.32;;;;;;;25.58;47.73;99366.38;5052124;28;20457;-75
2021/07/13 05:26:09;;;;;;;12.48;9.95;;;;;;;25.82;47.40;99402.47;5051791;28;20021;-74
2021/07/13 05:28:35;;;;;;;10.70;9.60;;;;;;;25.99;47.23;99418.31;5050963;28;20476;-73
2021/07/13 05:31:00;;;;;;;11.18;8.90;;;;;;;26.00;47.11;99413.72;5050355;28;20031;-75
2021/07/13 05:33:25;;;;;;;10.70;9.45;;;;;;;26.10;46.98;99421.78;5050707;28;20047;-75
2021/07/13 05:35:51;;;;;;;10.23;9.23;;;;;;;25.89;46.67;99373.22;5050727;28;20405;-75
2021/07/13 05:38:16;;;;;;;10.65;9.43;;;;;;;26.02;45.91;99392.63;5051799;28;20031;-74
2021/07/13 05:40:45;;;;;;;14.35;9.77;;;;;;;26.17;45.75;99406.03;5051827;28;20492;-75
2021/07/13 05:43:13;;;;;;;10.23;9.18;;;;;;;25.90;44.88;99372.13;5051940;28;20021;-74
2021/07/13 05:45:38;;;;;;;10.48;9.38;;;;;;;26.29;44.87;99417.28;5036225;28;20080;-75
2021/07/13 05:48:04;;;;;;;10.13;8.90;;;;;;;26.31;44.66;99406.97;5048364;28;20024;-74
2021/07/13 05:50:29;;;;;;;9.88;8.88;;;;;;;26.25;44.10;99394.59;5041574;28;20032;-73
2021/07/13 05:52:57;;;;;;;11.48;10.48;;;;;;;26.50;44.28;99424.16;5047948;28;20567;-73
2021/07/13 05:55:23;;;;;;;13.68;10.93;;;;;;;26.54;43.84;99418.97;5035460;28;20554;-73
2021/07/13 05:57:49;;;;;;;13.68;11.45;;;;;;;26.61;43.66;99419.44;5043679;28;20031;-75
2021/07/13 06:00:15;;;;;;;14.93;11.73;;;;;;;26.53;43.70;99391.09;5037421;28;20104;-73
2021/07/13 06:02:40;;;;;;;13.18;11.98;;;;;;;26.56;43.82;99400.53;5046322;28;20025;-73
2021/07/13 06:05:06;;;;;;;15.98;12.45;;;;;;;26.29;43.84;99377.50;5047145;28;20390;-73
2021/07/13 06:07:32;;;;;;;13.80;11.32;;;;;;;26.84;43.81;99415.16;5054375;28;20059;-75
2021/07/13 06:09:57;;;;;;;15.15;13.18;;;;;;;26.60;43.85;99380.72;5059281;28;20113;-74
2021/07/13 06:12:23;;;;;;;21.13;13.38;;;;;;;26.79;43.24;99402.47;5047129;28;20094;-74
2021/07/13 06:14:49;;;;;;;13.13;10.95;;;;;;;26.96;43.42;99422.88;5058384;28;20489;-74
2021/07/13 06:17:14;;;;;;;12.02;10.93;;;;;;;27.00;42.97;99422.06;5042112;28;20029;-74
2021/07/13 06:19:40;;;;;;;12.40;11.20;;;;;;;26.57;42.93;99345.28;5038168;28;20501;-74
2021/07/13 06:22:05;;;;;;;13.45;10.63;;;;;;;27.04;43.19;99416.88;5041518;28;20398;-74
2021/07/13 06:24:31;;;;;;;15.80;14.18;;;;;;;27.15;43.27;99418.34;5031722;28;20025;-74
2021/07/13 06:26:56;;;;;;;14.98;13.20;;;;;;;27.21;43.11;99419.91;5061464;28;20093;-73
2021/07/13 06:29:22;;;;;;;17.60;15.20;;;;;;;26.77;43.09;99333.44;5061825;28;20505;-74
2021/07/13 06:31:49;;;;;;;14.77;12.57;;;;;;;27.38;43.22;99422.94;5036290;28;20028;-74
2021/07/13 06:34:15;;;;;;;17.17;10.65;;;;;;;27.10;42.66;99369.63;5042766;28;20026;-74
2021/07/13 06:36:40;;;;;;;11.95;10.82;;;;;;;27.20;42.82;99370.31;5037051;28;20048;-74
2021/07/13 06:39:06;;;;;;;16.83;13.85;;;;;;;27.57;42.81;99414.84;5037015;28;20494;-74
2021/07/13 06:41:32;;;;;;;13.45;12.10;;;;;;;27.55;42.52;99400.75;5042868;28;20095;-73
2021/07/13 06:43:57;;;;;;;11.70;10.60;;;;;;;27.36;42.40;99376.31;5044047;28;20020;-73
2021/07/13 06:46:22;;;;;;;13.90;12.23;;;;;;;27.46;42.38;99387.03;5044991;28;20033;-74
2021/07/13 06:48:48;;;;;;;13.65;12.40;;;;;;;27.25;42.47;99352.34;5040485;28;20025;-73
2021/07/13 06:51:14;;;;;;;11.60;10.52;;;;;;;27.63;42.33;99394.72;5051520;28;20013;-73
2021/07/13 06:53:39;;;;;;;10.88;9.85;;;;;;;27.73;42.04;99405.41;5047003;28;20037;-74
2021/07/13 06:56:04;;;;;;;11.57;10.48;;;;;;;27.32;42.24;99322.97;5058730;28;20029;-74
2021/07/13 06:58:30;;;;;;;13.38;10.65;;;;;;;27.88;42.03;99406.28;5065760;28;20016;-75
2021/07/13 07:00:55;;;;;;;13.85;10.57;;;;;;;27.73;41.86;99375.56;5043427;28;20033;-74
2021/07/13 07:03:21;;;;;;;12.52;11.30;;;;;;;27.78;42.00;99369.25;5054073;28;20490;-75
2021/07/13 07:05:46;;;;;;;15.57;11.52;;;;;;;27.63;41.77;99331.50;5070223;28;20073;-74
2021/07/13 07:08:11;;;;;;;14.82;12.25;;;;;;;27.74;42.00;99360.91;5055830;28;20017;-74
2021/07/13 07:10:37;;;;;;;10.73;9.75;;;;;;;28.06;41.70;99386.44;5059172;28;20094;-74
2021/07/13 07:13:03;;;;;;;10.73;9.73;;;;;;;28.11;41.72;99383.63;5043402;28;20037;-73
2021/07/13 07:15:29;;;;;;;11.73;9.90;;;;;;;28.18;41.22;99393.00;5049562;28;20122;-75
2021/07/13 07:17:54;;;;;;;11.55;10.35;;;;;;;27.85;41.28;99343.34;5063256;28;20514;-74
2021/07/13 07:20:26;;;;;;;13.15;10.38;;;;;;;28.14;41.13;99394.69;5050816;28;20020;-74
2021/07/13 07:22:52;;;;;;;13.73;10.45;;;;;;;27.80;41.19;99343.44;5053054;28;20025;-74
2021/07/13 07:25:18;;;;;;;10.40;9.48;;;;;;;28.23;40.89;99389.44;5067275;28;20406;-74
2021/07/13 07:27:45;;;;;;;12.55;10.27;;;;;;;28.28;40.91;99375.00;5048702;28;20024;-74
2021/07/13 07:30:12;;;;;;;11.60;10.50;;;;;;;28.27;40.66;99368.75;5040373;28;20025;-74
2021/07/13 07:32:40;;;;;;;17.60;9.85;;;;;;;28.06;40.58;99299.56;5056637;28;20162;-74
2021/07/13 07:35:07;;;;;;;11.40;10.20;;;;;;;28.64;40.34;99394.94;5058564;28;20021;-74
2021/07/13 07:37:34;;;;;;;12.05;10.60;;;;;;;28.32;40.28;99324.41;5048630;28;20032;-73
2021/07/13 07:39:59;;;;;;;11.70;10.52;;;;;;;28.76;39.90;99383.59;5040449;28;20097;-75
2021/07/13 07:42:25;;;;;;;10.82;9.57;;;;;;;28.78;39.75;99381.38;5056448;28;20493;-74
2021/07/13 07:44:50;;;;;;;12.90;10.60;;;;;;;28.43;39.80;99315.75;5052264;28;20044;-74
2021/07/13 07:47:16;;;;;;;10.85;9.85;;;;;;;28.84;39.31;99363.09;5041271;28;20560;-74
2021/07/13 07:49:41;;;;;;;10.85;9.70;;;;;;;28.99;39.81;99373.69;5039369;28;20016;-74
2021/07/13 07:52:07;;;;;;;10.10;9.13;;;;;;;29.10;39.45;99378.59;5042237;28;20074;-72
2021/07/13 07:54:33;;;;;;;11.93;9.75;;;;;;;29.03;39.41;99355.66;5052907;28;20052;-73
2021/07/13 07:56:58;;;;;;;11.25;10.05;;;;;;;28.98;38.92;99315.75;5056153;28;20033;-73
2021/07/13 07:59:24;;;;;;;10.55;9.30;;;;;;;29.42;39.23;99364.03;5067514;28;20028;-75
2021/07/13 08:01:49;;;;;;;14.82;11.32;;;;;;;29.19;38.65;99307.19;5040072;28;20025;-72
2021/07/13 08:04:15;;;;;;;14.13;10.77;;;;;;;29.61;38.62;99363.88;5045623;28;20052;-74
2021/07/13 08:06:41;;;;;;;11.10;10.10;;;;;;;29.82;38.54;99368.88;5044775;28;20059;-74
2021/07/13 08:09:07;;;;;;;14.00;11.52;;;;;;;29.58;38.28;99323.69;5038118;28;20033;-74
2021/07/13 08:11:33;;;;;;;11.32;10.13;;;;;;;29.81;37.60;99340.84;5048066;28;20084;-74
2021/07/13 08:14:00;;;;;;;10.75;9.57;;;;;;;29.77;37.44;99306.41;5044295;28;20025;-73
2021/07/13 08:16:27;;;;;;;13.75;9.75;;;;;;;30.03;37.35;99338.13;5035675;28;20463;-75
2021/07/13 08:18:53;;;;;;;11.73;9.23;;;;;;;30.31;36.76;99355.09;5039438;28;20132;-73
2021/07/13 08:21:20;;;;;;;13.55;11.52;;;;;;;30.13;36.59;99318.00;5040784;28;20023;-73
2021/07/13 08:23:46;;;;;;;16.80;13.30;;;;;;;30.58;36.34;99372.41;5039104;28;20094;-74
2021/07/13 08:26:12;;;;;;;12.15;9.60;;;;;;;30.30;35.92;99311.84;5043676;28;20593;-73
2021/07/13 08:28:37;;;;;;;13.27;11.13;;;;;;;30.58;35.48;99356.84;5045555;28;20029;-74
2021/07/13 08:31:03;;;;;;;12.18;10.27;;;;;;;30.75;34.98;99368.97;5046188;28;20480;-75
2021/07/13 08:33:28;;;;;;;10.75;9.73;;;;;;;30.50;35.31;99326.84;5049209;28;20029;-74
2021/07/13 08:35:53;;;;;;;16.98;13.38;;;;;;;30.86;35.23;99362.09;5052030;28;20024;-74
2021/07/13 08:38:19;;;;;;;10.68;9.15;;;;;;;30.78;34.99;99344.63;5051118;28;20025;-73
2021/07/13 08:40:45;;;;;;;17.17;9.02;;;;;;;31.02;34.17;99365.19;5048757;28;20036;-73
2021/07/13 08:43:11;;;;;;;15.15;10.30;;;;;;;30.72;33.83;99305.00;5044422;28;20091;-73
2021/07/13 08:45:37;;;;;;;13.50;9.98;;;;;;;30.76;34.07;99296.97;5058776;28;20033;-73
2021/07/13 08:48:03;;;;;;;14.30;10.35;;;;;;;31.28;33.62;99357.91;5048516;28;20025;-74
2021/07/13 08:50:28;;;;;;;11.95;8.80;;;;;;;31.30;33.58;99344.75;5043261;28;20425;-74
2021/07/13 08:52:53;;;;;;;9.57;8.48;;;;;;;31.48;32.86;99359.22;5045285;28;20024;-74
2021/07/13 08:55:19;;;;;;;12.85;9.07;;;;;;;31.54;32.88;99361.47;5066941;28;20081;-75
2021/07/13 08:57:44;;;;;;;8.80;7.90;;;;;;;31.50;32.13;99343.31;5061477;28;20024;-75
2021/07/13 09:00:14;;;;;;;11.30;8.75;;;;;;;31.36;31.90;99294.38;5052036;28;20127;-75
2021/07/13 09:03:07;;;;;;;9.43;8.43;;;;;;;31.83;31.75;99349.09;5037805;28;20021;-73
2021/07/13 09:05:57;;;;;;;9.48;8.40;;;;;;;31.92;31.53;99338.97;5047068;28;20040;-73
2021/07/13 09:08:35;;;;;;;11.02;9.35;;;;;;;31.98;31.44;99326.78;5043004;28;20055;-73
2021/07/13 09:11:07;;;;;;;13.35;9.88;;;;;;;32.24;31.04;99345.84;5048227;28;20017;-75
2021/07/13 09:13:47;;;;;;;13.70;9.48;;;;;;;32.36;30.99;99342.44;5046907;28;20380;-74
2021/07/13 09:16:18;;;;;;;10.13;9.20;;;;;;;32.34;31.03;99311.91;5039898;28;20056;-73
2021/07/13 09:18:45;;;;;;;;;;;;;;;32.64;31.21;99354.53;5046619;28;20028;-75
2021/07/13 09:21:12;;;;;;;9.73;8.77;;;;;;;32.95;30.80;99348.78;5039310;28;19936;-74
2021/07/13 09:23:59;;;;;;;11.00;9.90;;;;;;;33.18;30.31;99347.34;5055079;28;20031;-74
2021/07/13 09:26:46;;;;;;;15.77;10.43;;;;;;;33.35;29.49;99349.19;5043735;28;20093;-73
2021/07/13 09:29:29;;;;;;;12.95;9.35;;;;;;;33.45;29.37;99350.75;5033561;28;20451;-73
2021/07/13 09:31:56;;;;;;;10.80;9.75;;;;;;;33.57;28.86;99353.56;5051417;28;20037;-73
2021/07/13 09:34:21;;;;;;;12.93;9.20;;;;;;;33.75;29.10;99341.31;5032371;28;20024;-76
2021/07/13 09:36:53;;;;;;;10.73;9.73;;;;;;;33.58;28.47;99289.44;5041543;28;20532;-74
2021/07/13 09:39:26;;;;;;;13.55;9.23;;;;;;;34.07;28.28;99347.13;5046195;28;20398;-74
2021/07/13 09:41:54;;;;;;;9.75;8.50;;;;;;;34.07;28.37;99347.94;5048933;28;20024;-75
2021/07/13 09:44:24;;;;;;;11.30;9.00;;;;;;;34.17;28.12;99322.03;5059537;28;20028;-73
2021/07/13 09:46:51;;;;;;;9.75;8.70;;;;;;;34.41;27.33;99335.81;5041535;28;20060;-74
2021/07/13 09:49:20;;;;;;;10.40;9.43;;;;;;;34.64;27.22;99330.69;5040318;28;20037;-75
2021/07/13 09:52:03;;;;;;;11.30;9.63;;;;;;;34.91;27.40;99333.91;5055178;28;20021;-74
2021/07/13 09:54:31;;;;;;;19.10;14.65;;;;;;;35.14;26.96;99326.81;5040191;28;20511;-74
2021/07/13 09:56:58;;;;;;;15.82;9.70;;;;;;;35.30;26.46;99333.16;5048053;28;20057;-74
2021/07/13 09:59:23;;;;;;;14.25;11.43;;;;;;;35.04;26.53;99286.13;5042353;28;20486;-74
2021/07/13 10:01:50;;;;;;;8.85;7.95;;;;;;;35.49;26.13;99326.25;5064673;28;20028;-75
2021/07/13 10:04:16;;;;;;;10.73;9.75;;;;;;;35.57;25.70;99322.56;5049508;28;20033;-74
2021/07/13 10:06:43;;;;;;;13.93;12.32;;;;;;;35.58;25.65;99292.00;5062826;28;20025;-74
2021/07/13 10:09:13;;;;;;;11.00;8.73;;;;;;;35.50;25.42;99268.25;5056221;28;20021;-74
2021/07/13 10:11:40;;;;;;;9.48;8.23;;;;;;;35.76;24.88;99297.22;5062622;28;20099;-74
2021/07/13 10:14:11;;;;;;;10.82;9.07;;;;;;;36.01;24.93;99309.69;5042343;28;20025;-74
2021/07/13 10:16:38;;;;;;;10.95;9.38;;;;;;;36.13;24.95;99303.31;5056955;28;20032;-74
2021/07/13 10:19:08;;;;;;;9.70;8.70;;;;;;;36.36;24.90;99304.31;5050860;28;20436;-75
2021/07/13 10:21:35;;;;;;;11.75;8.57;;;;;;;36.42;24.83;99297.44;5029910;28;20032;-73
2021/07/13 10:24:02;;;;;;;9.32;8.45;;;;;;;36.46;24.29;99298.31;5037201;28;20028;-75
2021/07/13 10:26:48;;;;;;;9.98;9.00;;;;;;;36.55;24.25;99295.38;5051183;28;20414;-76
2021/07/13 10:29:32;;;;;;;12.40;8.50;;;;;;;36.63;24.58;99291.63;5046953;28;20036;-75
2021/07/13 10:31:58;;;;;;;9.90;8.90;;;;;;;36.76;24.41;99284.88;5039421;28;20107;-74
2021/07/13 10:34:53;;;;;;;11.90;8.50;;;;;;;37.08;24.02;99287.53;5041087;28;20056;-74
2021/07/13 10:37:40;;;;;;;9.07;7.13;;;;;;;37.25;23.65;99280.84;5035592;28;20440;-73
2021/07/13 10:40:33;;;;;;;8.90;7.85;;;;;;;37.22;23.31;99280.41;5038435;28;20493;-72
2021/07/13 10:43:15;;;;;;;11.77;10.68;;;;;;;37.30;23.29;99280.56;5027618;28;20052;-75
2021/07/13 10:45:42;;;;;;;13.30;11.75;;;;;;;37.35;23.09;99248.03;5041130;28;20085;-75
2021/07/13 10:48:16;;;;;;;11.38;9.18;;;;;;;37.68;23.02;99275.03;5030944;28;20101;-74
2021/07/13 10:50:46;;;;;;;9.30;7.97;;;;;;;37.87;22.86;99276.16;5035571;28;20090;-73
2021/07/13 10:53:14;;;;;;;10.18;9.15;;;;;;;37.97;22.68;99284.66;5031550;28;20037;-75
2021/07/13 10:55:40;;;;;;;9.45;8.48;;;;;;;38.08;22.64;99274.59;5047689;28;20060;-75
2021/07/13 10:58:15;;;;;;;9.77;7.95;;;;;;;38.19;22.62;99276.78;5041958;28;20059;-73
2021/07/13 11:03:27;;;;;;;10.82;9.52;;;;;;;38.55;21.74;99269.84;5032313;28;20124;-74
2021/07/13 11:06:14;;;;;;;8.30;7.53;;;;;;;38.62;21.62;99269.97;5028680;28;20060;-75
2021/07/13 11:08:45;;;;;;;8.40;7.50;;;;;;;38.66;22.36;99268.88;5031432;28;20517;-74
2021/07/13 11:11:13;;;;;;;9.82;8.93;;;;;;;38.81;22.01;99272.66;5033859;28;20493;-72
2021/07/13 11:13:39;;;;;;;10.40;8.00;;;;;;;38.89;21.79;99254.22;5040431;28;20120;-72
2021/07/13 11:16:04;;;;;;;9.63;8.10;;;;;;;39.14;21.78;99262.84;5042091;28;20564;-73
2021/07/13 11:18:34;;;;;;;11.68;7.88;;;;;;;39.23;20.69;99263.34;5032939;28;20033;-73
2021/07/13 11:21:24;;;;;;;10.25;7.70;;;;;;;38.99;20.88;99253.56;5049908;28;20075;-73
2021/07/13 11:23:55;;;;;;;13.95;9.43;;;;;;;39.01;21.09;99260.28;5038742;28;20483;-74
2021/07/13 11:26:21;;;;;;;;;;;;;;;39.20;21.22;99264.09;5062224;28;20031;-73
2021/07/13 11:28:49;;;;;;;11.48;10.20;;;;;;;39.21;21.15;99238.88;5050305;28;19924;-74
2021/07/13 11:31:23;;;;;;;8.70;7.72;;;;;;;39.34;19.70;99258.75;5061147;28;20013;-74
2021/07/13 11:33:58;;;;;;;8.68;6.72;;;;;;;39.45;20.63;99247.84;5060509;28;20029;-73